sensor_id;sensor_type;location;lat;lon;timestamp;P1;durP1;ratioP1;P2;durP2;ratioP2
31760;SDS011;18335;51.486;7.562;2023-06-22T00:00:48;8.45;;;4.15;;
31760;SDS011;18335;51.486;7.562;2023-06-22T00:03:15;8.05;;;4.30;;
31760;SDS011;18335;51.486;7.562;2023-06-22T00:05:43;6.93;;;4.07;;
31760;SDS011;18335;51.486;7.562;2023-06-22T00:08:10;9.55;;;4.57;;
31760;SDS011;18335;51.486;7.562;2023-06-22T00:10:36;10.07;;;5.30;;
31760;SDS011;18335;51.486;7.562;2023-06-22T00:13:05;9.15;;;5.13;;
31760;SDS011;18335;51.486;7.562;2023-06-22T00:15:32;10.23;;;5.30;;
31760;SDS011;18335;51.486;7.562;2023-06-22T00:17:59;9.63;;;5.22;;
31760;SDS011;18335;51.486;7.562;2023-06-22T00:20:27;10.40;;;4.90;;
31760;SDS011;18335;51.486;7.562;2023-06-22T00:22:55;11.50;;;5.85;;
31760;SDS011;18335;51.486;7.562;2023-06-22T00:25:23;9.98;;;5.53;;
31760;SDS011;18335;51.486;7.562;2023-06-22T00:27:50;11.73;;;5.65;;
31760;SDS011;18335;51.486;7.562;2023-06-22T00:30:18;11.80;;;5.85;;
31760;SDS011;18335;51.486;7.562;2023-06-22T00:32:45;8.80;;;4.47;;
31760;SDS011;18335;51.486;7.562;2023-06-22T00:35:13;10.20;;;5.18;;
31760;SDS011;18335;51.486;7.562;2023-06-22T00:37:40;9.23;;;5.03;;
31760;SDS011;18335;51.486;7.562;2023-06-22T00:40:07;9.32;;;5.18;;
31760;SDS011;18335;51.486;7.562;2023-06-22T00:42:37;11.38;;;4.97;;
31760;SDS011;18335;51.486;7.562;2023-06-22T00:45:04;10.90;;;5.00;;
31760;SDS011;18335;51.486;7.562;2023-06-22T00:47:33;10.55;;;5.07;;
31760;SDS011;18335;51.486;7.562;2023-06-22T00:50:03;10.23;;;5.18;;
31760;SDS011;18335;51.486;7.562;2023-06-22T00:52:33;11.93;;;5.53;;
31760;SDS011;18335;51.486;7.562;2023-06-22T00:55:00;9.13;;;4.93;;
31760;SDS011;18335;51.486;7.562;2023-06-22T00:57:29;10.27;;;4.18;;
31760;SDS011;18335;51.486;7.562;2023-06-22T00:59:56;11.60;;;4.43;;
31760;SDS011;18335;51.486;7.562;2023-06-22T01:02:23;11.25;;;5.13;;
31760;SDS011;18335;51.486;7.562;2023-06-22T01:04:52;10.13;;;4.75;;
31760;SDS011;18335;51.486;7.562;2023-06-22T01:07:31;10.25;;;4.65;;
31760;SDS011;18335;51.486;7.562;2023-06-22T01:10:03;8.00;;;4.30;;
31760;SDS011;18335;51.486;7.562;2023-06-22T01:12:38;8.57;;;4.43;;
31760;SDS011;18335;51.486;7.562;2023-06-22T01:15:08;9.00;;;4.47;;
31760;SDS011;18335;51.486;7.562;2023-06-22T01:17:39;8.15;;;3.95;;
31760;SDS011;18335;51.486;7.562;2023-06-22T01:20:11;9.05;;;4.63;;
31760;SDS011;18335;51.486;7.562;2023-06-22T01:22:44;10.98;;;4.60;;
31760;SDS011;18335;51.486;7.562;2023-06-22T01:25:19;9.27;;;4.55;;
31760;SDS011;18335;51.486;7.562;2023-06-22T01:27:50;9.70;;;4.80;;
31760;SDS011;18335;51.486;7.562;2023-06-22T01:30:27;9.73;;;4.13;;
31760;SDS011;18335;51.486;7.562;2023-06-22T01:32:56;9.68;;;4.20;;
31760;SDS011;18335;51.486;7.562;2023-06-22T01:35:24;8.65;;;4.35;;
31760;SDS011;18335;51.486;7.562;2023-06-22T01:37:51;9.60;;;4.43;;
31760;SDS011;18335;51.486;7.562;2023-06-22T01:40:18;7.32;;;3.80;;
31760;SDS011;18335;51.486;7.562;2023-06-22T01:42:50;10.30;;;5.18;;
31760;SDS011;18335;51.486;7.562;2023-06-22T01:45:17;8.43;;;4.55;;
31760;SDS011;18335;51.486;7.562;2023-06-22T01:47:46;9.80;;;4.72;;
31760;SDS011;18335;51.486;7.562;2023-06-22T01:50:14;8.48;;;4.10;;
31760;SDS011;18335;51.486;7.562;2023-06-22T01:52:40;7.93;;;4.00;;
31760;SDS011;18335;51.486;7.562;2023-06-22T01:55:07;11.38;;;4.45;;
31760;SDS011;18335;51.486;7.562;2023-06-22T01:57:34;9.20;;;4.70;;
31760;SDS011;18335;51.486;7.562;2023-06-22T02:00:03;8.95;;;4.60;;
31760;SDS011;18335;51.486;7.562;2023-06-22T02:02:42;8.35;;;4.07;;
31760;SDS011;18335;51.486;7.562;2023-06-22T02:05:16;7.78;;;4.25;;
31760;SDS011;18335;51.486;7.562;2023-06-22T02:07:46;12.68;;;5.38;;
31760;SDS011;18335;51.486;7.562;2023-06-22T02:10:16;8.18;;;4.47;;
31760;SDS011;18335;51.486;7.562;2023-06-22T02:12:46;9.95;;;4.95;;
31760;SDS011;18335;51.486;7.562;2023-06-22T02:15:14;11.70;;;5.85;;
31760;SDS011;18335;51.486;7.562;2023-06-22T02:17:42;9.80;;;5.38;;
31760;SDS011;18335;51.486;7.562;2023-06-22T02:20:12;13.73;;;5.70;;
31760;SDS011;18335;51.486;7.562;2023-06-22T02:22:40;8.90;;;5.22;;
31760;SDS011;18335;51.486;7.562;2023-06-22T02:25:10;9.50;;;4.80;;
31760;SDS011;18335;51.486;7.562;2023-06-22T02:27:37;8.63;;;4.35;;
31760;SDS011;18335;51.486;7.562;2023-06-22T02:30:06;8.45;;;4.30;;
31760;SDS011;18335;51.486;7.562;2023-06-22T02:32:34;8.88;;;4.68;;
31760;SDS011;18335;51.486;7.562;2023-06-22T02:35:01;7.57;;;4.07;;
31760;SDS011;18335;51.486;7.562;2023-06-22T02:37:29;12.23;;;5.18;;
31760;SDS011;18335;51.486;7.562;2023-06-22T02:39:57;9.95;;;4.90;;
31760;SDS011;18335;51.486;7.562;2023-06-22T02:42:24;9.15;;;4.38;;
31760;SDS011;18335;51.486;7.562;2023-06-22T02:44:51;9.13;;;5.00;;
31760;SDS011;18335;51.486;7.562;2023-06-22T02:47:19;8.85;;;5.13;;
31760;SDS011;18335;51.486;7.562;2023-06-22T02:49:46;11.32;;;4.53;;
31760;SDS011;18335;51.486;7.562;2023-06-22T02:52:13;11.48;;;5.18;;
31760;SDS011;18335;51.486;7.562;2023-06-22T02:54:40;8.30;;;4.18;;
31760;SDS011;18335;51.486;7.562;2023-06-22T02:57:08;8.57;;;4.38;;
31760;SDS011;18335;51.486;7.562;2023-06-22T02:59:39;11.40;;;5.03;;
31760;SDS011;18335;51.486;7.562;2023-06-22T03:02:08;11.85;;;4.90;;
31760;SDS011;18335;51.486;7.562;2023-06-22T03:04:36;10.05;;;4.70;;
31760;SDS011;18335;51.486;7.562;2023-06-22T03:07:03;10.50;;;4.90;;
31760;SDS011;18335;51.486;7.562;2023-06-22T03:09:31;8.45;;;4.53;;
31760;SDS011;18335;51.486;7.562;2023-06-22T03:11:58;9.65;;;4.25;;
31760;SDS011;18335;51.486;7.562;2023-06-22T03:14:34;8.60;;;4.82;;
31760;SDS011;18335;51.486;7.562;2023-06-22T03:17:02;11.52;;;4.65;;
31760;SDS011;18335;51.486;7.562;2023-06-22T03:19:30;9.38;;;4.90;;
31760;SDS011;18335;51.486;7.562;2023-06-22T03:21:59;7.82;;;4.50;;
31760;SDS011;18335;51.486;7.562;2023-06-22T03:24:26;9.85;;;4.93;;
31760;SDS011;18335;51.486;7.562;2023-06-22T03:26:54;11.40;;;4.55;;
31760;SDS011;18335;51.486;7.562;2023-06-22T03:29:21;9.38;;;4.93;;
31760;SDS011;18335;51.486;7.562;2023-06-22T03:31:50;9.18;;;4.65;;
31760;SDS011;18335;51.486;7.562;2023-06-22T03:34:17;7.68;;;4.40;;
31760;SDS011;18335;51.486;7.562;2023-06-22T03:36:44;8.27;;;4.32;;
31760;SDS011;18335;51.486;7.562;2023-06-22T03:39:11;9.35;;;5.50;;
31760;SDS011;18335;51.486;7.562;2023-06-22T03:41:40;10.38;;;5.07;;
31760;SDS011;18335;51.486;7.562;2023-06-22T03:44:07;9.77;;;5.53;;
31760;SDS011;18335;51.486;7.562;2023-06-22T03:46:37;10.70;;;5.35;;
31760;SDS011;18335;51.486;7.562;2023-06-22T03:49:05;9.88;;;4.72;;
31760;SDS011;18335;51.486;7.562;2023-06-22T03:51:32;11.85;;;5.82;;
31760;SDS011;18335;51.486;7.562;2023-06-22T03:53:59;11.48;;;5.28;;
31760;SDS011;18335;51.486;7.562;2023-06-22T03:56:26;11.88;;;6.18;;
31760;SDS011;18335;51.486;7.562;2023-06-22T03:58:53;10.25;;;5.35;;
31760;SDS011;18335;51.486;7.562;2023-06-22T04:01:19;11.65;;;5.80;;
31760;SDS011;18335;51.486;7.562;2023-06-22T04:03:46;9.68;;;5.43;;
31760;SDS011;18335;51.486;7.562;2023-06-22T04:06:16;9.50;;;5.38;;
31760;SDS011;18335;51.486;7.562;2023-06-22T04:08:44;10.00;;;5.38;;
31760;SDS011;18335;51.486;7.562;2023-06-22T04:11:13;10.52;;;5.47;;
31760;SDS011;18335;51.486;7.562;2023-06-22T04:13:40;9.40;;;5.43;;
31760;SDS011;18335;51.486;7.562;2023-06-22T04:16:06;13.93;;;7.38;;
31760;SDS011;18335;51.486;7.562;2023-06-22T04:18:33;10.90;;;6.28;;
31760;SDS011;18335;51.486;7.562;2023-06-22T04:21:00;12.02;;;6.57;;
31760;SDS011;18335;51.486;7.562;2023-06-22T04:23:29;10.50;;;6.63;;
31760;SDS011;18335;51.486;7.562;2023-06-22T04:25:55;12.68;;;7.35;;
31760;SDS011;18335;51.486;7.562;2023-06-22T04:28:23;12.95;;;8.02;;
31760;SDS011;18335;51.486;7.562;2023-06-22T04:30:49;15.25;;;9.02;;
31760;SDS011;18335;51.486;7.562;2023-06-22T04:33:16;17.65;;;9.82;;
31760;SDS011;18335;51.486;7.562;2023-06-22T04:35:44;14.20;;;9.18;;
31760;SDS011;18335;51.486;7.562;2023-06-22T04:38:12;15.80;;;10.18;;
31760;SDS011;18335;51.486;7.562;2023-06-22T04:40:40;14.90;;;9.60;;
31760;SDS011;18335;51.486;7.562;2023-06-22T04:43:07;17.83;;;11.68;;
31760;SDS011;18335;51.486;7.562;2023-06-22T04:45:35;16.08;;;10.95;;
31760;SDS011;18335;51.486;7.562;2023-06-22T04:48:03;22.05;;;10.35;;
31760;SDS011;18335;51.486;7.562;2023-06-22T04:50:30;18.42;;;12.00;;
31760;SDS011;18335;51.486;7.562;2023-06-22T04:52:57;17.95;;;11.07;;
31760;SDS011;18335;51.486;7.562;2023-06-22T04:55:24;15.80;;;11.38;;
31760;SDS011;18335;51.486;7.562;2023-06-22T04:57:52;18.27;;;10.60;;
31760;SDS011;18335;51.486;7.562;2023-06-22T05:00:19;16.10;;;11.38;;
31760;SDS011;18335;51.486;7.562;2023-06-22T05:02:48;16.92;;;10.55;;
31760;SDS011;18335;51.486;7.562;2023-06-22T05:05:15;16.20;;;10.35;;
31760;SDS011;18335;51.486;7.562;2023-06-22T05:07:43;15.75;;;10.10;;
31760;SDS011;18335;51.486;7.562;2023-06-22T05:10:13;14.77;;;9.40;;
31760;SDS011;18335;51.486;7.562;2023-06-22T05:12:40;15.38;;;9.52;;
31760;SDS011;18335;51.486;7.562;2023-06-22T05:15:09;16.13;;;10.77;;
31760;SDS011;18335;51.486;7.562;2023-06-22T05:17:36;14.43;;;10.13;;
31760;SDS011;18335;51.486;7.562;2023-06-22T05:20:08;14.13;;;10.32;;
31760;SDS011;18335;51.486;7.562;2023-06-22T05:22:35;18.13;;;11.07;;
31760;SDS011;18335;51.486;7.562;2023-06-22T05:25:02;18.70;;;10.93;;
31760;SDS011;18335;51.486;7.562;2023-06-22T05:27:29;18.90;;;11.30;;
31760;SDS011;18335;51.486;7.562;2023-06-22T05:29:56;16.25;;;10.77;;
31760;SDS011;18335;51.486;7.562;2023-06-22T05:32:24;19.10;;;11.75;;
31760;SDS011;18335;51.486;7.562;2023-06-22T05:34:51;18.25;;;11.57;;
31760;SDS011;18335;51.486;7.562;2023-06-22T05:37:17;16.73;;;11.55;;
31760;SDS011;18335;51.486;7.562;2023-06-22T05:39:44;19.65;;;11.90;;
31760;SDS011;18335;51.486;7.562;2023-06-22T05:42:11;17.00;;;12.20;;
31760;SDS011;18335;51.486;7.562;2023-06-22T05:44:37;17.15;;;13.18;;
31760;SDS011;18335;51.486;7.562;2023-06-22T05:47:06;20.25;;;12.57;;
31760;SDS011;18335;51.486;7.562;2023-06-22T05:49:34;17.98;;;12.45;;
31760;SDS011;18335;51.486;7.562;2023-06-22T05:52:00;20.42;;;13.88;;
31760;SDS011;18335;51.486;7.562;2023-06-22T05:54:27;19.17;;;14.35;;
31760;SDS011;18335;51.486;7.562;2023-06-22T05:56:54;19.20;;;13.95;;
31760;SDS011;18335;51.486;7.562;2023-06-22T05:59:21;23.77;;;15.07;;
31760;SDS011;18335;51.486;7.562;2023-06-22T06:01:47;24.05;;;14.73;;
31760;SDS011;18335;51.486;7.562;2023-06-22T06:04:15;20.20;;;14.77;;
31760;SDS011;18335;51.486;7.562;2023-06-22T06:06:44;22.88;;;15.52;;
31760;SDS011;18335;51.486;7.562;2023-06-22T06:09:12;20.40;;;15.52;;
31760;SDS011;18335;51.486;7.562;2023-06-22T06:11:39;22.10;;;14.57;;
31760;SDS011;18335;51.486;7.562;2023-06-22T06:14:06;22.75;;;14.15;;
31760;SDS011;18335;51.486;7.562;2023-06-22T06:16:33;23.85;;;14.57;;
31760;SDS011;18335;51.486;7.562;2023-06-22T06:18:59;19.25;;;14.25;;
31760;SDS011;18335;51.486;7.562;2023-06-22T06:21:26;18.70;;;14.98;;
31760;SDS011;18335;51.486;7.562;2023-06-22T06:23:54;19.45;;;14.07;;
31760;SDS011;18335;51.486;7.562;2023-06-22T06:26:21;19.10;;;15.23;;
31760;SDS011;18335;51.486;7.562;2023-06-22T06:28:53;20.50;;;15.73;;
31760;SDS011;18335;51.486;7.562;2023-06-22T06:31:19;19.02;;;14.75;;
31760;SDS011;18335;51.486;7.562;2023-06-22T06:33:46;21.42;;;15.98;;
31760;SDS011;18335;51.486;7.562;2023-06-22T06:36:14;19.33;;;15.35;;
31760;SDS011;18335;51.486;7.562;2023-06-22T06:38:41;21.77;;;15.35;;
31760;SDS011;18335;51.486;7.562;2023-06-22T06:41:09;19.83;;;16.80;;
31760;SDS011;18335;51.486;7.562;2023-06-22T06:43:35;20.40;;;15.65;;
31760;SDS011;18335;51.486;7.562;2023-06-22T06:46:02;21.30;;;16.67;;
31760;SDS011;18335;51.486;7.562;2023-06-22T06:48:29;20.70;;;15.45;;
31760;SDS011;18335;51.486;7.562;2023-06-22T06:50:56;21.77;;;16.83;;
31760;SDS011;18335;51.486;7.562;2023-06-22T06:53:23;24.05;;;16.45;;
31760;SDS011;18335;51.486;7.562;2023-06-22T06:55:49;20.02;;;16.75;;
31760;SDS011;18335;51.486;7.562;2023-06-22T06:58:17;23.20;;;15.63;;
31760;SDS011;18335;51.486;7.562;2023-06-22T07:00:44;21.90;;;16.25;;
31760;SDS011;18335;51.486;7.562;2023-06-22T07:03:11;20.52;;;16.15;;
31760;SDS011;18335;51.486;7.562;2023-06-22T07:05:38;22.60;;;16.15;;
31760;SDS011;18335;51.486;7.562;2023-06-22T07:08:04;22.40;;;16.33;;
31760;SDS011;18335;51.486;7.562;2023-06-22T07:10:31;18.70;;;15.65;;
31760;SDS011;18335;51.486;7.562;2023-06-22T07:12:58;22.80;;;17.00;;
31760;SDS011;18335;51.486;7.562;2023-06-22T07:15:26;22.25;;;16.95;;
31760;SDS011;18335;51.486;7.562;2023-06-22T07:17:53;24.02;;;17.45;;
31760;SDS011;18335;51.486;7.562;2023-06-22T07:20:20;24.40;;;18.15;;
31760;SDS011;18335;51.486;7.562;2023-06-22T07:22:47;23.90;;;17.23;;
31760;SDS011;18335;51.486;7.562;2023-06-22T07:25:14;22.85;;;18.30;;
31760;SDS011;18335;51.486;7.562;2023-06-22T07:27:43;25.20;;;16.88;;
31760;SDS011;18335;51.486;7.562;2023-06-22T07:30:11;20.75;;;17.08;;
31760;SDS011;18335;51.486;7.562;2023-06-22T07:32:40;24.20;;;18.60;;
31760;SDS011;18335;51.486;7.562;2023-06-22T07:35:07;22.60;;;18.02;;
31760;SDS011;18335;51.486;7.562;2023-06-22T07:37:34;25.00;;;18.05;;
31760;SDS011;18335;51.486;7.562;2023-06-22T07:40:01;25.52;;;19.58;;
31760;SDS011;18335;51.486;7.562;2023-06-22T07:42:31;23.27;;;17.40;;
31760;SDS011;18335;51.486;7.562;2023-06-22T07:44:59;24.15;;;18.35;;
31760;SDS011;18335;51.486;7.562;2023-06-22T07:47:27;24.33;;;17.85;;
31760;SDS011;18335;51.486;7.562;2023-06-22T07:49:55;24.98;;;17.15;;
31760;SDS011;18335;51.486;7.562;2023-06-22T07:52:23;24.90;;;18.23;;
31760;SDS011;18335;51.486;7.562;2023-06-22T07:54:51;23.55;;;17.02;;
31760;SDS011;18335;51.486;7.562;2023-06-22T07:57:17;21.45;;;16.67;;
31760;SDS011;18335;51.486;7.562;2023-06-22T07:59:44;22.83;;;18.20;;
31760;SDS011;18335;51.486;7.562;2023-06-22T08:02:11;25.10;;;18.10;;
31760;SDS011;18335;51.486;7.562;2023-06-22T08:04:38;24.60;;;18.05;;
31760;SDS011;18335;51.486;7.562;2023-06-22T08:07:07;21.77;;;17.42;;
31760;SDS011;18335;51.486;7.562;2023-06-22T08:09:35;22.45;;;17.13;;
31760;SDS011;18335;51.486;7.562;2023-06-22T08:12:02;23.33;;;17.92;;
31760;SDS011;18335;51.486;7.562;2023-06-22T08:14:30;24.27;;;17.63;;
31760;SDS011;18335;51.486;7.562;2023-06-22T08:16:56;23.42;;;18.83;;
31760;SDS011;18335;51.486;7.562;2023-06-22T08:19:23;24.70;;;18.17;;
31760;SDS011;18335;51.486;7.562;2023-06-22T08:21:50;23.35;;;17.58;;
31760;SDS011;18335;51.486;7.562;2023-06-22T08:24:18;22.35;;;17.90;;
31760;SDS011;18335;51.486;7.562;2023-06-22T08:26:45;21.83;;;17.75;;
31760;SDS011;18335;51.486;7.562;2023-06-22T08:29:12;23.50;;;18.42;;
31760;SDS011;18335;51.486;7.562;2023-06-22T08:31:39;23.52;;;19.10;;
31760;SDS011;18335;51.486;7.562;2023-06-22T08:34:06;22.00;;;18.42;;
31760;SDS011;18335;51.486;7.562;2023-06-22T08:36:33;21.98;;;19.08;;
31760;SDS011;18335;51.486;7.562;2023-06-22T08:39:02;21.85;;;17.75;;
31760;SDS011;18335;51.486;7.562;2023-06-22T08:41:31;26.75;;;18.95;;
31760;SDS011;18335;51.486;7.562;2023-06-22T08:43:58;22.83;;;18.20;;
31760;SDS011;18335;51.486;7.562;2023-06-22T08:46:24;22.98;;;18.05;;
31760;SDS011;18335;51.486;7.562;2023-06-22T08:48:55;22.73;;;17.02;;
31760;SDS011;18335;51.486;7.562;2023-06-22T08:51:23;22.27;;;17.35;;
31760;SDS011;18335;51.486;7.562;2023-06-22T08:53:50;19.67;;;15.35;;
31760;SDS011;18335;51.486;7.562;2023-06-22T08:56:17;16.13;;;13.05;;
31760;SDS011;18335;51.486;7.562;2023-06-22T08:58:45;18.17;;;14.90;;
31760;SDS011;18335;51.486;7.562;2023-06-22T09:01:12;18.17;;;13.68;;
31760;SDS011;18335;51.486;7.562;2023-06-22T09:03:40;18.85;;;14.15;;
31760;SDS011;18335;51.486;7.562;2023-06-22T09:06:07;16.65;;;13.43;;
31760;SDS011;18335;51.486;7.562;2023-06-22T09:08:35;19.52;;;14.77;;
31760;SDS011;18335;51.486;7.562;2023-06-22T09:11:02;18.48;;;14.32;;
31760;SDS011;18335;51.486;7.562;2023-06-22T09:13:29;16.77;;;13.65;;
31760;SDS011;18335;51.486;7.562;2023-06-22T09:15:58;18.15;;;13.55;;
31760;SDS011;18335;51.486;7.562;2023-06-22T09:18:25;16.83;;;13.20;;
31760;SDS011;18335;51.486;7.562;2023-06-22T09:20:51;15.88;;;13.27;;
31760;SDS011;18335;51.486;7.562;2023-06-22T09:23:18;18.48;;;12.88;;
31760;SDS011;18335;51.486;7.562;2023-06-22T09:25:45;16.02;;;13.82;;
31760;SDS011;18335;51.486;7.562;2023-06-22T09:28:12;17.77;;;13.38;;
31760;SDS011;18335;51.486;7.562;2023-06-22T09:30:39;16.48;;;12.68;;
31760;SDS011;18335;51.486;7.562;2023-06-22T09:33:07;18.35;;;14.75;;
31760;SDS011;18335;51.486;7.562;2023-06-22T09:35:34;18.98;;;14.63;;
31760;SDS011;18335;51.486;7.562;2023-06-22T09:38:01;17.35;;;14.50;;
31760;SDS011;18335;51.486;7.562;2023-06-22T09:40:27;20.58;;;15.07;;
31760;SDS011;18335;51.486;7.562;2023-06-22T09:42:54;17.20;;;13.02;;
31760;SDS011;18335;51.486;7.562;2023-06-22T09:45:21;19.05;;;14.73;;
31760;SDS011;18335;51.486;7.562;2023-06-22T09:47:47;19.00;;;16.55;;
31760;SDS011;18335;51.486;7.562;2023-06-22T09:50:16;20.10;;;15.40;;
31760;SDS011;18335;51.486;7.562;2023-06-22T09:52:43;19.70;;;16.13;;
31760;SDS011;18335;51.486;7.562;2023-06-22T09:55:12;18.35;;;14.85;;
31760;SDS011;18335;51.486;7.562;2023-06-22T09:57:42;22.42;;;15.38;;
31760;SDS011;18335;51.486;7.562;2023-06-22T10:00:13;19.77;;;14.02;;
31760;SDS011;18335;51.486;7.562;2023-06-22T10:02:41;19.75;;;14.65;;
31760;SDS011;18335;51.486;7.562;2023-06-22T10:05:08;17.98;;;14.95;;
31760;SDS011;18335;51.486;7.562;2023-06-22T10:07:36;17.25;;;12.38;;
31760;SDS011;18335;51.486;7.562;2023-06-22T10:10:05;15.27;;;11.98;;
31760;SDS011;18335;51.486;7.562;2023-06-22T10:12:33;15.43;;;12.60;;
31760;SDS011;18335;51.486;7.562;2023-06-22T10:14:59;20.98;;;13.63;;
31760;SDS011;18335;51.486;7.562;2023-06-22T10:17:26;18.48;;;13.40;;
31760;SDS011;18335;51.486;7.562;2023-06-22T10:19:53;17.77;;;11.70;;
31760;SDS011;18335;51.486;7.562;2023-06-22T10:22:20;16.08;;;11.27;;
31760;SDS011;18335;51.486;7.562;2023-06-22T10:24:48;17.98;;;14.23;;
31760;SDS011;18335;51.486;7.562;2023-06-22T10:27:15;16.83;;;12.55;;
31760;SDS011;18335;51.486;7.562;2023-06-22T10:29:42;15.82;;;12.00;;
31760;SDS011;18335;51.486;7.562;2023-06-22T10:32:09;17.40;;;13.27;;
31760;SDS011;18335;51.486;7.562;2023-06-22T10:34:35;16.17;;;12.63;;
31760;SDS011;18335;51.486;7.562;2023-06-22T10:37:02;16.27;;;11.27;;
31760;SDS011;18335;51.486;7.562;2023-06-22T10:39:29;16.08;;;11.02;;
31760;SDS011;18335;51.486;7.562;2023-06-22T10:41:57;13.35;;;10.00;;
31760;SDS011;18335;51.486;7.562;2023-06-22T10:44:24;13.88;;;10.45;;
31760;SDS011;18335;51.486;7.562;2023-06-22T10:46:51;14.25;;;10.93;;
31760;SDS011;18335;51.486;7.562;2023-06-22T10:49:18;15.20;;;9.80;;
31760;SDS011;18335;51.486;7.562;2023-06-22T10:51:44;15.23;;;9.82;;
31760;SDS011;18335;51.486;7.562;2023-06-22T10:54:11;14.48;;;8.93;;
31760;SDS011;18335;51.486;7.562;2023-06-22T10:56:39;19.65;;;9.77;;
31760;SDS011;18335;51.486;7.562;2023-06-22T10:59:07;14.93;;;10.13;;
31760;SDS011;18335;51.486;7.562;2023-06-22T11:01:34;15.98;;;9.85;;
31760;SDS011;18335;51.486;7.562;2023-06-22T11:04:02;13.25;;;10.00;;
31760;SDS011;18335;51.486;7.562;2023-06-22T11:06:29;15.27;;;10.27;;
31760;SDS011;18335;51.486;7.562;2023-06-22T11:08:55;16.52;;;9.20;;
31760;SDS011;18335;51.486;7.562;2023-06-22T11:11:23;13.57;;;8.85;;
31760;SDS011;18335;51.486;7.562;2023-06-22T11:13:52;13.70;;;9.43;;
31760;SDS011;18335;51.486;7.562;2023-06-22T11:16:20;13.57;;;9.55;;
31760;SDS011;18335;51.486;7.562;2023-06-22T11:18:46;11.63;;;9.15;;
31760;SDS011;18335;51.486;7.562;2023-06-22T11:21:13;15.93;;;10.90;;
31760;SDS011;18335;51.486;7.562;2023-06-22T11:23:41;18.60;;;10.90;;
31760;SDS011;18335;51.486;7.562;2023-06-22T11:26:08;22.58;;;12.10;;
31760;SDS011;18335;51.486;7.562;2023-06-22T11:28:35;17.40;;;11.85;;
31760;SDS011;18335;51.486;7.562;2023-06-22T11:31:02;17.75;;;12.25;;
31760;SDS011;18335;51.486;7.562;2023-06-22T11:33:31;19.00;;;13.93;;
31760;SDS011;18335;51.486;7.562;2023-06-22T11:35:58;16.98;;;12.65;;
31760;SDS011;18335;51.486;7.562;2023-06-22T11:38:25;17.90;;;13.48;;
31760;SDS011;18335;51.486;7.562;2023-06-22T11:40:52;15.02;;;12.95;;
31760;SDS011;18335;51.486;7.562;2023-06-22T11:43:18;19.58;;;13.60;;
31760;SDS011;18335;51.486;7.562;2023-06-22T11:45:45;18.40;;;14.68;;
31760;SDS011;18335;51.486;7.562;2023-06-22T11:48:12;22.73;;;15.40;;
31760;SDS011;18335;51.486;7.562;2023-06-22T11:50:40;19.15;;;14.52;;
31760;SDS011;18335;51.486;7.562;2023-06-22T11:53:07;22.70;;;14.70;;
31760;SDS011;18335;51.486;7.562;2023-06-22T11:55:34;24.10;;;15.27;;
31760;SDS011;18335;51.486;7.562;2023-06-22T11:58:00;19.27;;;15.23;;
31760;SDS011;18335;51.486;7.562;2023-06-22T12:00:29;20.42;;;16.15;;
31760;SDS011;18335;51.486;7.562;2023-06-22T12:02:56;21.58;;;15.27;;
31760;SDS011;18335;51.486;7.562;2023-06-22T12:05:22;20.40;;;16.05;;
31760;SDS011;18335;51.486;7.562;2023-06-22T12:07:52;23.67;;;15.77;;
31760;SDS011;18335;51.486;7.562;2023-06-22T12:10:19;23.45;;;16.20;;
31760;SDS011;18335;51.486;7.562;2023-06-22T12:12:46;22.77;;;15.70;;
31760;SDS011;18335;51.486;7.562;2023-06-22T12:15:13;21.88;;;16.10;;
31760;SDS011;18335;51.486;7.562;2023-06-22T12:17:40;20.15;;;16.40;;
31760;SDS011;18335;51.486;7.562;2023-06-22T12:20:07;21.98;;;15.68;;
31760;SDS011;18335;51.486;7.562;2023-06-22T12:22:35;23.55;;;15.45;;
31760;SDS011;18335;51.486;7.562;2023-06-22T12:25:04;22.40;;;16.48;;
31760;SDS011;18335;51.486;7.562;2023-06-22T12:27:32;20.75;;;15.82;;
31760;SDS011;18335;51.486;7.562;2023-06-22T12:29:59;19.25;;;15.48;;
31760;SDS011;18335;51.486;7.562;2023-06-22T12:32:25;24.08;;;16.48;;
31760;SDS011;18335;51.486;7.562;2023-06-22T12:34:52;24.85;;;16.00;;
31760;SDS011;18335;51.486;7.562;2023-06-22T12:37:19;22.63;;;15.98;;
31760;SDS011;18335;51.486;7.562;2023-06-22T12:39:46;20.33;;;15.70;;
31760;SDS011;18335;51.486;7.562;2023-06-22T12:42:15;23.50;;;16.13;;
31760;SDS011;18335;51.486;7.562;2023-06-22T12:44:42;23.70;;;16.83;;
31760;SDS011;18335;51.486;7.562;2023-06-22T12:47:10;25.17;;;17.98;;
31760;SDS011;18335;51.486;7.562;2023-06-22T12:49:36;29.67;;;17.65;;
31760;SDS011;18335;51.486;7.562;2023-06-22T12:52:08;23.63;;;17.25;;
31760;SDS011;18335;51.486;7.562;2023-06-22T12:54:35;27.40;;;19.13;;
31760;SDS011;18335;51.486;7.562;2023-06-22T12:57:02;21.00;;;16.73;;
31760;SDS011;18335;51.486;7.562;2023-06-22T12:59:30;21.80;;;16.75;;
31760;SDS011;18335;51.486;7.562;2023-06-22T13:01:58;21.15;;;16.48;;
31760;SDS011;18335;51.486;7.562;2023-06-22T13:04:24;21.80;;;17.17;;
31760;SDS011;18335;51.486;7.562;2023-06-22T13:06:51;19.50;;;16.10;;
31760;SDS011;18335;51.486;7.562;2023-06-22T13:09:18;19.58;;;16.38;;
31760;SDS011;18335;51.486;7.562;2023-06-22T13:11:45;21.85;;;16.13;;
31760;SDS011;18335;51.486;7.562;2023-06-22T13:14:12;20.65;;;14.82;;
31760;SDS011;18335;51.486;7.562;2023-06-22T13:16:40;19.92;;;14.93;;
31760;SDS011;18335;51.486;7.562;2023-06-22T13:19:07;20.08;;;14.63;;
31760;SDS011;18335;51.486;7.562;2023-06-22T13:21:34;20.65;;;14.65;;
31760;SDS011;18335;51.486;7.562;2023-06-22T13:24:01;19.35;;;14.63;;
31760;SDS011;18335;51.486;7.562;2023-06-22T13:26:28;18.40;;;12.98;;
31760;SDS011;18335;51.486;7.562;2023-06-22T13:28:55;19.50;;;13.50;;
31760;SDS011;18335;51.486;7.562;2023-06-22T13:31:22;18.38;;;13.45;;
31760;SDS011;18335;51.486;7.562;2023-06-22T13:33:50;18.10;;;13.88;;
31760;SDS011;18335;51.486;7.562;2023-06-22T13:36:17;18.70;;;14.55;;
31760;SDS011;18335;51.486;7.562;2023-06-22T13:38:45;18.45;;;14.85;;
31760;SDS011;18335;51.486;7.562;2023-06-22T13:41:12;20.45;;;15.93;;
31760;SDS011;18335;51.486;7.562;2023-06-22T13:43:39;22.73;;;15.63;;
31760;SDS011;18335;51.486;7.562;2023-06-22T13:46:06;17.45;;;14.48;;
31760;SDS011;18335;51.486;7.562;2023-06-22T13:48:32;19.60;;;14.27;;
31760;SDS011;18335;51.486;7.562;2023-06-22T13:51:00;16.27;;;13.40;;
31760;SDS011;18335;51.486;7.562;2023-06-22T13:53:27;16.98;;;13.43;;
31760;SDS011;18335;51.486;7.562;2023-06-22T13:55:55;17.80;;;14.30;;
31760;SDS011;18335;51.486;7.562;2023-06-22T13:58:22;18.75;;;14.15;;
31760;SDS011;18335;51.486;7.562;2023-06-22T14:00:49;21.38;;;14.65;;
31760;SDS011;18335;51.486;7.562;2023-06-22T14:03:15;17.60;;;14.73;;
31760;SDS011;18335;51.486;7.562;2023-06-22T14:05:42;17.40;;;13.35;;
31760;SDS011;18335;51.486;7.562;2023-06-22T14:08:11;18.45;;;14.45;;
31760;SDS011;18335;51.486;7.562;2023-06-22T14:10:37;18.38;;;14.23;;
31760;SDS011;18335;51.486;7.562;2023-06-22T14:13:04;17.88;;;14.32;;
31760;SDS011;18335;51.486;7.562;2023-06-22T14:15:32;20.40;;;15.15;;
31760;SDS011;18335;51.486;7.562;2023-06-22T14:17:58;17.88;;;13.77;;
31760;SDS011;18335;51.486;7.562;2023-06-22T14:20:25;18.48;;;15.15;;
31760;SDS011;18335;51.486;7.562;2023-06-22T14:22:52;19.27;;;15.80;;
31760;SDS011;18335;51.486;7.562;2023-06-22T14:25:20;21.75;;;15.00;;
31760;SDS011;18335;51.486;7.562;2023-06-22T14:27:47;19.17;;;14.68;;
31760;SDS011;18335;51.486;7.562;2023-06-22T14:30:13;17.48;;;13.85;;